sensor_id;sensor_type;location;lat;lon;timestamp;pressure;altitude;pressure_sealevel;temperature;humidity
37068;BME280;22982;42.848;25.468;2022-12-18T00:03:25;96911.50;;;9.94;100.00
37068;BME280;22982;42.848;25.468;2022-12-18T00:08:28;96928.78;;;9.99;100.00
37068;BME280;22982;42.848;25.468;2022-12-18T00:13:30;96937.53;;;10.16;100.00
37068;BME280;22982;42.848;25.468;2022-12-18T00:18:33;96947.16;;;9.80;99.63
37068;BME280;22982;42.848;25.468;2022-12-18T00:23:36;96970.28;;;9.30;100.00
37068;BME280;22982;42.848;25.468;2022-12-18T00:28:39;96961.69;;;9.47;100.00
37068;BME280;22982;42.848;25.468;2022-12-18T00:33:42;96967.72;;;9.49;99.43
37068;BME280;22982;42.848;25.468;2022-12-18T00:38:45;96978.25;;;9.48;99.71
37068;BME280;22982;42.848;25.468;2022-12-18T00:43:51;96978.91;;;9.53;99.33
37068;BME280;22982;42.848;25.468;2022-12-18T00:48:54;96985.56;;;9.60;98.11
37068;BME280;22982;42.848;25.468;2022-12-18T00:53:56;96968.50;;;9.51;97.97
37068;BME280;22982;42.848;25.468;2022-12-18T00:58:58;96978.59;;;9.40;98.38
37068;BME280;22982;42.848;25.468;2022-12-18T01:04:01;96974.78;;;9.47;97.99
37068;BME280;22982;42.848;25.468;2022-12-18T01:09:04;96975.91;;;9.42;96.90
37068;BME280;22982;42.848;25.468;2022-12-18T01:14:06;96986.94;;;9.48;96.33
37068;BME280;22982;42.848;25.468;2022-12-18T01:19:11;96990.28;;;9.52;95.97
37068;BME280;22982;42.848;25.468;2022-12-18T01:24:14;96978.81;;;9.15;97.63
37068;BME280;22982;42.848;25.468;2022-12-18T01:29:19;96967.66;;;8.91;99.90
37068;BME280;22982;42.848;25.468;2022-12-18T01:34:22;96977.56;;;9.03;100.00
37068;BME280;22982;42.848;25.468;2022-12-18T01:39:24;96994.13;;;9.04;100.00
37068;BME280;22982;42.848;25.468;2022-12-18T01:44:57;97004.22;;;8.70;100.00
37068;BME280;22982;42.848;25.468;2022-12-18T01:55:26;97006.28;;;8.84;100.00
37068;BME280;22982;42.848;25.468;2022-12-18T02:00:30;97014.59;;;8.94;100.00
37068;BME280;22982;42.848;25.468;2022-12-18T02:11:01;97010.25;;;8.72;100.00
37068;BME280;22982;42.848;25.468;2022-12-18T02:21:40;97033.31;;;8.62;100.00
37068;BME280;22982;42.848;25.468;2022-12-18T02:26:50;97021.28;;;8.58;100.00
37068;BME280;22982;42.848;25.468;2022-12-18T02:31:58;97017.88;;;8.56;100.00
37068;BME280;22982;42.848;25.468;2022-12-18T02:37:04;97033.25;;;8.64;100.00
37068;BME280;22982;42.848;25.468;2022-12-18T02:42:09;97039.22;;;8.46;100.00
37068;BME280;22982;42.848;25.468;2022-12-18T02:47:13;97056.28;;;8.54;100.00
37068;BME280;22982;42.848;25.468;2022-12-18T02:52:20;97049.81;;;8.41;100.00
37068;BME280;22982;42.848;25.468;2022-12-18T03:03:02;97079.44;;;8.40;100.00
37068;BME280;22982;42.848;25.468;2022-12-18T03:08:14;97053.03;;;8.49;100.00
37068;BME280;22982;42.848;25.468;2022-12-18T03:13:33;97076.97;;;8.60;100.00
37068;BME280;22982;42.848;25.468;2022-12-18T03:18:56;97059.25;;;8.45;100.00
37068;BME280;22982;42.848;25.468;2022-12-18T03:24:00;97086.13;;;8.49;100.00
37068;BME280;22982;42.848;25.468;2022-12-18T03:29:09;97090.41;;;8.28;100.00
37068;BME280;22982;42.848;25.468;2022-12-18T03:34:17;97087.47;;;8.13;100.00
37068;BME280;22982;42.848;25.468;2022-12-18T03:39:24;97128.13;;;7.97;100.00
37068;BME280;22982;42.848;25.468;2022-12-18T03:44:55;97133.78;;;8.08;100.00
37068;BME280;22982;42.848;25.468;2022-12-18T03:55:15;97133.19;;;7.76;100.00
37068;BME280;22982;42.848;25.468;2022-12-18T04:00:21;97130.63;;;7.98;100.00
37068;BME280;22982;42.848;25.468;2022-12-18T04:05:30;97133.84;;;8.07;100.00
37068;BME280;22982;42.848;25.468;2022-12-18T04:10:36;97160.59;;;8.13;100.00
37068;BME280;22982;42.848;25.468;2022-12-18T04:15:39;97152.19;;;7.80;100.00
37068;BME280;22982;42.848;25.468;2022-12-18T04:20:46;97176.34;;;7.86;100.00
37068;BME280;22982;42.848;25.468;2022-12-18T04:25:51;97152.38;;;7.75;100.00
37068;BME280;22982;42.848;25.468;2022-12-18T04:31:06;97194.91;;;7.52;100.00
37068;BME280;22982;42.848;25.468;2022-12-18T04:36:09;97174.09;;;7.24;100.00
37068;BME280;22982;42.848;25.468;2022-12-18T04:41:13;97206.63;;;7.39;100.00
37068;BME280;22982;42.848;25.468;2022-12-18T04:46:17;97225.25;;;7.28;100.00
37068;BME280;22982;42.848;25.468;2022-12-18T04:51:19;97247.88;;;7.27;100.00
37068;BME280;22982;42.848;25.468;2022-12-18T04:56:27;97235.84;;;7.23;100.00
37068;BME280;22982;42.848;25.468;2022-12-18T05:01:29;97220.03;;;7.01;100.00
37068;BME280;22982;42.848;25.468;2022-12-18T05:06:35;97246.56;;;7.14;100.00
37068;BME280;22982;42.848;25.468;2022-12-18T05:11:38;97241.59;;;7.06;100.00
37068;BME280;22982;42.848;25.468;2022-12-18T05:16:40;97254.72;;;7.03;100.00
37068;BME280;22982;42.848;25.468;2022-12-18T05:21:42;97273.06;;;7.00;100.00
37068;BME280;22982;42.848;25.468;2022-12-18T05:26:44;97285.50;;;6.92;100.00
37068;BME280;22982;42.848;25.468;2022-12-18T05:31:46;97267.75;;;6.74;100.00
37068;BME280;22982;42.848;25.468;2022-12-18T05:36:49;97286.38;;;6.91;100.00
37068;BME280;22982;42.848;25.468;2022-12-18T05:41:51;97283.84;;;6.88;100.00
37068;BME280;22982;42.848;25.468;2022-12-18T05:46:53;97294.09;;;6.96;100.00
37068;BME280;22982;42.848;25.468;2022-12-18T05:51:56;97313.22;;;6.95;100.00
37068;BME280;22982;42.848;25.468;2022-12-18T05:56:58;97308.56;;;7.04;100.00
37068;BME280;22982;42.848;25.468;2022-12-18T06:02:01;97317.22;;;7.06;100.00
37068;BME280;22982;42.848;25.468;2022-12-18T06:07:03;97329.00;;;7.20;100.00
37068;BME280;22982;42.848;25.468;2022-12-18T06:12:06;97330.88;;;7.15;100.00
37068;BME280;22982;42.848;25.468;2022-12-18T06:17:08;97337.50;;;7.26;100.00
37068;BME280;22982;42.848;25.468;2022-12-18T06:22:10;97345.41;;;7.23;100.00
37068;BME280;22982;42.848;25.468;2022-12-18T06:27:12;97324.22;;;7.04;100.00
37068;BME280;22982;42.848;25.468;2022-12-18T06:32:15;97363.84;;;7.17;100.00
37068;BME280;22982;42.848;25.468;2022-12-18T06:37:21;97383.50;;;7.29;100.00
37068;BME280;22982;42.848;25.468;2022-12-18T06:42:24;97373.72;;;7.06;100.00
37068;BME280;22982;42.848;25.468;2022-12-18T06:47:41;97365.25;;;6.99;100.00
37068;BME280;22982;42.848;25.468;2022-12-18T06:52:43;97401.84;;;7.26;100.00
37068;BME280;22982;42.848;25.468;2022-12-18T06:57:46;97410.16;;;7.09;100.00
37068;BME280;22982;42.848;25.468;2022-12-18T07:02:48;97408.59;;;7.03;100.00
37068;BME280;22982;42.848;25.468;2022-12-18T07:07:50;97434.88;;;7.27;100.00
37068;BME280;22982;42.848;25.468;2022-12-18T07:12:52;97433.16;;;7.26;100.00
37068;BME280;22982;42.848;25.468;2022-12-18T07:17:55;97441.22;;;7.18;100.00
37068;BME280;22982;42.848;25.468;2022-12-18T07:22:57;97439.25;;;6.94;98.58
37068;BME280;22982;42.848;25.468;2022-12-18T07:27:59;97428.38;;;7.11;97.38
37068;BME280;22982;42.848;25.468;2022-12-18T07:33:02;97444.22;;;7.36;97.52
37068;BME280;22982;42.848;25.468;2022-12-18T07:38:04;97433.09;;;7.29;94.56
37068;BME280;22982;42.848;25.468;2022-12-18T07:43:06;97453.53;;;7.44;93.50
37068;BME280;22982;42.848;25.468;2022-12-18T07:48:09;97454.03;;;7.57;91.50
37068;BME280;22982;42.848;25.468;2022-12-18T07:53:11;97453.53;;;7.44;91.97
37068;BME280;22982;42.848;25.468;2022-12-18T07:58:13;97450.53;;;7.27;93.07
37068;BME280;22982;42.848;25.468;2022-12-18T08:03:16;97461.38;;;7.44;91.71
37068;BME280;22982;42.848;25.468;2022-12-18T08:08:18;97450.06;;;7.74;91.07
37068;BME280;22982;42.848;25.468;2022-12-18T08:13:21;97447.84;;;7.90;89.29
37068;BME280;22982;42.848;25.468;2022-12-18T08:18:23;97452.44;;;8.10;86.89
37068;BME280;22982;42.848;25.468;2022-12-18T08:23:26;97455.06;;;8.10;86.13
37068;BME280;22982;42.848;25.468;2022-12-18T08:28:29;97450.16;;;7.99;84.42
37068;BME280;22982;42.848;25.468;2022-12-18T08:33:32;97448.94;;;7.82;82.05
37068;BME280;22982;42.848;25.468;2022-12-18T08:38:35;97466.50;;;7.77;79.77
37068;BME280;22982;42.848;25.468;2022-12-18T08:43:38;97456.97;;;7.75;76.96
37068;BME280;22982;42.848;25.468;2022-12-18T08:49:00;97468.31;;;8.02;76.01
37068;BME280;22982;42.848;25.468;2022-12-18T08:54:04;97460.31;;;8.08;75.34
37068;BME280;22982;42.848;25.468;2022-12-18T08:59:08;97445.72;;;8.56;73.07
37068;BME280;22982;42.848;25.468;2022-12-18T09:04:18;97461.69;;;8.75;71.34
37068;BME280;22982;42.848;25.468;2022-12-18T09:09:20;97442.75;;;8.13;74.00
37068;BME280;22982;42.848;25.468;2022-12-18T09:14:22;97425.94;;;7.94;71.13
37068;BME280;22982;42.848;25.468;2022-12-18T09:19:25;97471.94;;;8.26;71.03
37068;BME280;22982;42.848;25.468;2022-12-18T09:24:27;97461.34;;;8.04;70.66
37068;BME280;22982;42.848;25.468;2022-12-18T09:29:29;97463.75;;;8.10;71.14
37068;BME280;22982;42.848;25.468;2022-12-18T09:34:32;97441.13;;;8.09;70.89
37068;BME280;22982;42.848;25.468;2022-12-18T09:39:34;97431.50;;;8.11;69.83
37068;BME280;22982;42.848;25.468;2022-12-18T09:44:43;97441.22;;;8.33;69.83
37068;BME280;22982;42.848;25.468;2022-12-18T09:50:01;97468.72;;;8.46;69.16
37068;BME280;22982;42.848;25.468;2022-12-18T10:00:20;97450.84;;;8.32;69.97
37068;BME280;22982;42.848;25.468;2022-12-18T10:05:38;97463.84;;;8.34;69.22
37068;BME280;22982;42.848;25.468;2022-12-18T10:10:51;97467.69;;;7.95;70.71
37068;BME280;22982;42.848;25.468;2022-12-18T10:16:03;97470.63;;;7.84;72.29
37068;BME280;22982;42.848;25.468;2022-12-18T10:21:13;97468.97;;;8.10;70.51
37068;BME280;22982;42.848;25.468;2022-12-18T10:26:18;97457.75;;;8.07;69.70
37068;BME280;22982;42.848;25.468;2022-12-18T10:31:23;97457.97;;;7.71;70.83
37068;BME280;22982;42.848;25.468;2022-12-18T10:36:26;97458.09;;;7.96;70.67
37068;BME280;22982;42.848;25.468;2022-12-18T10:41:28;97479.69;;;8.01;69.38
37068;BME280;22982;42.848;25.468;2022-12-18T10:46:37;97480.84;;;7.92;71.12
37068;BME280;22982;42.848;25.468;2022-12-18T10:51:39;97457.38;;;7.91;68.02
37068;BME280;22982;42.848;25.468;2022-12-18T10:56:42;97484.84;;;8.04;65.54
37068;BME280;22982;42.848;25.468;2022-12-18T11:01:56;97466.00;;;7.93;62.18
37068;BME280;22982;42.848;25.468;2022-12-18T11:07:03;97490.56;;;8.15;61.42
37068;BME280;22982;42.848;25.468;2022-12-18T11:12:15;97493.38;;;8.09;60.88
37068;BME280;22982;42.848;25.468;2022-12-18T11:17:21;97495.00;;;7.83;59.62
37068;BME280;22982;42.848;25.468;2022-12-18T11:22:32;97499.16;;;7.91;59.62
37068;BME280;22982;42.848;25.468;2022-12-18T11:27:35;97492.69;;;7.44;61.16
37068;BME280;22982;42.848;25.468;2022-12-18T11:32:39;97497.94;;;7.43;60.06
37068;BME280;22982;42.848;25.468;2022-12-18T11:37:49;97497.50;;;7.27;60.54
37068;BME280;22982;42.848;25.468;2022-12-18T11:43:20;97495.53;;;7.66;59.00
37068;BME280;22982;42.848;25.468;2022-12-18T11:48:30;97496.75;;;7.84;57.22
37068;BME280;22982;42.848;25.468;2022-12-18T11:53:34;97489.41;;;7.66;57.47
37068;BME280;22982;42.848;25.468;2022-12-18T12:09:17;97501.53;;;7.98;52.02
37068;BME280;22982;42.848;25.468;2022-12-18T12:14:57;97481.53;;;7.67;52.92
37068;BME280;22982;42.848;25.468;2022-12-18T12:20:17;97509.31;;;8.00;51.57
37068;BME280;22982;42.848;25.468;2022-12-18T12:25:37;97494.03;;;7.58;50.75
37068;BME280;22982;42.848;25.468;2022-12-18T12:30:52;97496.94;;;7.77;50.34
37068;BME280;22982;42.848;25.468;2022-12-18T12:41:33;97502.88;;;7.52;49.73
37068;BME280;22982;42.848;25.468;2022-12-18T12:47:00;97513.28;;;7.54;50.16
37068;BME280;22982;42.848;25.468;2022-12-18T12:52:12;97517.53;;;7.58;50.78
37068;BME280;22982;42.848;25.468;2022-12-18T12:57:41;97523.81;;;7.80;50.21
37068;BME280;22982;42.848;25.468;2022-12-18T13:08:57;97543.75;;;7.84;51.06
37068;BME280;22982;42.848;25.468;2022-12-18T13:14:00;97538.13;;;7.67;50.78
37068;BME280;22982;42.848;25.468;2022-12-18T13:19:03;97548.41;;;7.73;51.73
37068;BME280;22982;42.848;25.468;2022-12-18T13:24:20;97547.47;;;7.44;52.40
37068;BME280;22982;42.848;25.468;2022-12-18T13:29:42;97543.09;;;7.45;51.50
37068;BME280;22982;42.848;25.468;2022-12-18T13:34:45;97543.38;;;7.36;52.43
37068;BME280;22982;42.848;25.468;2022-12-18T13:39:48;97558.78;;;7.45;52.38
37068;BME280;22982;42.848;25.468;2022-12-18T13:44:50;97563.69;;;7.56;51.93
37068;BME280;22982;42.848;25.468;2022-12-18T13:49:52;97575.53;;;7.36;51.70
37068;BME280;22982;42.848;25.468;2022-12-18T13:54:56;97560.47;;;7.46;52.56
37068;BME280;22982;42.848;25.468;2022-12-18T14:00:32;97581.19;;;7.52;52.63
37068;BME280;22982;42.848;25.468;2022-12-18T14:05:36;97558.69;;;7.48;52.98
37068;BME280;22982;42.848;25.468;2022-12-18T14:10:45;97575.94;;;7.54;52.19
37068;BME280;22982;42.848;25.468;2022-12-18T14:15:50;97572.34;;;7.25;52.80
37068;BME280;22982;42.848;25.468;2022-12-18T14:20:57;97579.13;;;7.32;53.68
37068;BME280;22982;42.848;25.468;2022-12-18T14:31:27;97598.31;;;7.29;54.65
37068;BME280;22982;42.848;25.468;2022-12-18T14:36:29;97593.47;;;7.16;55.09
37068;BME280;22982;42.848;25.468;2022-12-18T14:41:32;97607.31;;;7.18;55.11
37068;BME280;22982;42.848;25.468;2022-12-18T14:46:39;97583.34;;;7.03;54.75
37068;BME280;22982;42.848;25.468;2022-12-18T14:51:53;97617.03;;;7.11;53.99
37068;BME280;22982;42.848;25.468;2022-12-18T14:57:03;97615.75;;;6.93;55.12
37068;BME280;22982;42.848;25.468;2022-12-18T15:07:23;97631.06;;;7.07;56.44
37068;BME280;22982;42.848;25.468;2022-12-18T15:12:34;97640.03;;;6.95;59.54
37068;BME280;22982;42.848;25.468;2022-12-18T15:17:37;97623.38;;;6.65;61.75
37068;BME280;22982;42.848;25.468;2022-12-18T15:22:39;97651.72;;;6.40;64.05
37068;BME280;22982;42.848;25.468;2022-12-18T15:27:46;97659.53;;;6.40;65.12
37068;BME280;22982;42.848;25.468;2022-12-18T15:32:50;97649.88;;;6.03;66.24
37068;BME280;22982;42.848;25.468;2022-12-18T15:37:52;97673.44;;;5.95;68.06
37068;BME280;22982;42.848;25.468;2022-12-18T15:42:55;97674.38;;;5.91;68.35
37068;BME280;22982;42.848;25.468;2022-12-18T15:48:21;97673.72;;;5.78;68.82
37068;BME280;22982;42.848;25.468;2022-12-18T15:53:27;97696.94;;;5.90;68.38
37068;BME280;22982;42.848;25.468;2022-12-18T15:58:30;97695.34;;;5.83;69.09
37068;BME280;22982;42.848;25.468;2022-12-18T16:03:32;97685.00;;;5.80;68.20
37068;BME280;22982;42.848;25.468;2022-12-18T16:08:34;97707.47;;;5.84;68.43
37068;BME280;22982;42.848;25.468;2022-12-18T16:13:36;97705.06;;;5.73;69.68
37068;BME280;22982;42.848;25.468;2022-12-18T16:18:39;97703.47;;;5.65;69.78
37068;BME280;22982;42.848;25.468;2022-12-18T16:23:41;97714.78;;;5.64;70.02
37068;BME280;22982;42.848;25.468;2022-12-18T16:28:45;97705.31;;;5.60;69.30
37068;BME280;22982;42.848;25.468;2022-12-18T16:33:49;97706.25;;;5.55;70.60
37068;BME280;22982;42.848;25.468;2022-12-18T16:38:51;97720.81;;;5.66;70.84
37068;BME280;22982;42.848;25.468;2022-12-18T16:43:54;97733.13;;;5.56;70.83
37068;BME280;22982;42.848;25.468;2022-12-18T16:48:59;97750.00;;;5.32;71.33
37068;BME280;22982;42.848;25.468;2022-12-18T16:54:05;97752.56;;;5.33;71.84
37068;BME280;22982;42.848;25.468;2022-12-18T16:59:13;97763.97;;;5.25;73.36
37068;BME280;22982;42.848;25.468;2022-12-18T17:04:16;97773.84;;;5.01;75.52
37068;BME280;22982;42.848;25.468;2022-12-18T17:09:19;97790.34;;;4.98;78.60
37068;BME280;22982;42.848;25.468;2022-12-18T17:14:26;97776.56;;;5.51;100.00
37068;BME280;22982;42.848;25.468;2022-12-18T17:19:28;97801.44;;;5.69;92.30
37068;BME280;22982;42.848;25.468;2022-12-18T17:24:31;97808.16;;;5.26;79.69
37068;BME280;22982;42.848;25.468;2022-12-18T17:29:36;97794.28;;;4.62;81.21
37068;BME280;22982;42.848;25.468;2022-12-18T17:34:47;97838.22;;;4.82;86.12
37068;BME280;22982;42.848;25.468;2022-12-18T17:39:49;97816.84;;;4.58;84.35
37068;BME280;22982;42.848;25.468;2022-12-18T17:44:52;97836.03;;;4.47;84.90
37068;BME280;22982;42.848;25.468;2022-12-18T17:49:54;97850.91;;;4.34;87.13
37068;BME280;22982;42.848;25.468;2022-12-18T17:54:57;97868.97;;;4.45;87.89
37068;BME280;22982;42.848;25.468;2022-12-18T18:00:00;97855.78;;;4.60;84.86
37068;BME280;22982;42.848;25.468;2022-12-18T18:05:10;97867.22;;;4.47;84.00
37068;BME280;22982;42.848;25.468;2022-12-18T18:10:22;97856.94;;;4.34;84.01
37068;BME280;22982;42.848;25.468;2022-12-18T18:15:25;97857.13;;;4.16;83.33
37068;BME280;22982;42.848;25.468;2022-12-18T18:20:27;97886.41;;;4.30;82.38
37068;BME280;22982;42.848;25.468;2022-12-18T18:25:35;97885.72;;;4.10;81.39
37068;BME280;22982;42.848;25.468;2022-12-18T18:30:38;97896.06;;;4.14;82.72
37068;BME280;22982;42.848;25.468;2022-12-18T18:35:42;97905.53;;;4.20;75.42
37068;BME280;22982;42.848;25.468;2022-12-18T18:41:01;97903.88;;;4.13;70.42
37068;BME280;22982;42.848;25.468;2022-12-18T18:46:04;97916.06;;;4.03;66.62
37068;BME280;22982;42.848;25.468;2022-12-18T18:51:10;97913.56;;;3.92;66.58
37068;BME280;22982;42.848;25.468;2022-12-18T18:56:17;97910.94;;;3.94;66.34
37068;BME280;22982;42.848;25.468;2022-12-18T19:01:47;97909.31;;;3.82;66.24
37068;BME280;22982;42.848;25.468;2022-12-18T19:06:50;97920.59;;;3.78;67.80
37068;BME280;22982;42.848;25.468;2022-12-18T19:11:53;97921.28;;;4.01;67.15
37068;BME280;22982;42.848;25.468;2022-12-18T19:17:17;97943.84;;;3.90;67.11
37068;BME280;22982;42.848;25.468;2022-12-18T19:22:19;97937.72;;;3.97;67.68
37068;BME280;22982;42.848;25.468;2022-12-18T19:27:24;97935.19;;;3.91;67.93
37068;BME280;22982;42.848;25.468;2022-12-18T19:32:26;97929.13;;;3.92;66.64
37068;BME280;22982;42.848;25.468;2022-12-18T19:37:28;97959.31;;;4.01;66.71
37068;BME280;22982;42.848;25.468;2022-12-18T19:42:30;97954.25;;;3.87;67.24
37068;BME280;22982;42.848;25.468;2022-12-18T19:47:36;97955.97;;;3.87;67.75
37068;BME280;22982;42.848;25.468;2022-12-18T19:52:38;97968.06;;;3.91;67.58
37068;BME280;22982;42.848;25.468;2022-12-18T19:57:41;97959.50;;;3.78;68.46
37068;BME280;22982;42.848;25.468;2022-12-18T20:02:43;97971.66;;;3.68;69.53
37068;BME280;22982;42.848;25.468;2022-12-18T20:07:45;97974.34;;;3.45;71.57
37068;BME280;22982;42.848;25.468;2022-12-18T20:12:47;97990.69;;;3.69;70.88
37068;BME280;22982;42.848;25.468;2022-12-18T20:17:50;97978.63;;;3.61;71.72
37068;BME280;22982;42.848;25.468;2022-12-18T20:22:53;97967.47;;;3.45;71.51
37068;BME280;22982;42.848;25.468;2022-12-18T20:27:55;98007.22;;;3.48;72.23
37068;BME280;22982;42.848;25.468;2022-12-18T20:32:58;98000.34;;;3.36;72.61
37068;BME280;22982;42.848;25.468;2022-12-18T20:38:03;98006.44;;;3.22;73.24
37068;BME280;22982;42.848;25.468;2022-12-18T20:43:11;98008.25;;;3.02;75.11
37068;BME280;22982;42.848;25.468;2022-12-18T20:48:18;98011.66;;;3.07;75.64
37068;BME280;22982;42.848;25.468;2022-12-18T20:53:27;98023.78;;;2.97;77.05
37068;BME280;22982;42.848;25.468;2022-12-18T20:58:29;98004.81;;;2.84;76.47
37068;BME280;22982;42.848;25.468;2022-12-18T21:03:31;98033.31;;;2.75;77.40
37068;BME280;22982;42.848;25.468;2022-12-18T21:08:33;98027.28;;;2.45;79.31
37068;BME280;22982;42.848;25.468;2022-12-18T21:13:35;98023.78;;;2.03;81.77
37068;BME280;22982;42.848;25.468;2022-12-18T21:18:38;98041.84;;;1.72;84.37
37068;BME280;22982;42.848;25.468;2022-12-18T21:23:40;98032.28;;;1.53;86.04
37068;BME280;22982;42.848;25.468;2022-12-18T21:28:42;98045.19;;;1.51;85.24
37068;BME280;22982;42.848;25.468;2022-12-18T21:33:45;98039.91;;;1.30;87.14
37068;BME280;22982;42.848;25.468;2022-12-18T21:38:49;98056.13;;;0.97;89.65
37068;BME280;22982;42.848;25.468;2022-12-18T21:43:53;98054.47;;;1.09;89.50
